sensor_id;sensor_type;location;lat;lon;timestamp;temperature;humidity
20740;DHT22;10530;49.968;19.844;2023-07-13T00:00:56;20.10;99.90
20740;DHT22;10530;49.968;19.844;2023-07-13T00:06:00;20.30;99.90
20740;DHT22;10530;49.968;19.844;2023-07-13T00:11:04;20.20;99.90
20740;DHT22;10530;49.968;19.844;2023-07-13T00:16:09;20.00;99.90
20740;DHT22;10530;49.968;19.844;2023-07-13T00:21:13;20.00;99.90
20740;DHT22;10530;49.968;19.844;2023-07-13T00:26:16;19.90;99.90
20740;DHT22;10530;49.968;19.844;2023-07-13T00:31:19;19.90;99.90
20740;DHT22;10530;49.968;19.844;2023-07-13T00:36:22;19.90;99.90
20740;DHT22;10530;49.968;19.844;2023-07-13T00:41:26;19.90;99.90
20740;DHT22;10530;49.968;19.844;2023-07-13T00:46:34;19.90;99.90
20740;DHT22;10530;49.968;19.844;2023-07-13T00:51:43;19.90;99.90
20740;DHT22;10530;49.968;19.844;2023-07-13T00:56:49;19.70;99.90
20740;DHT22;10530;49.968;19.844;2023-07-13T01:01:53;19.50;99.90
20740;DHT22;10530;49.968;19.844;2023-07-13T01:06:57;19.50;99.90
20740;DHT22;10530;49.968;19.844;2023-07-13T01:12:02;19.50;99.90
20740;DHT22;10530;49.968;19.844;2023-07-13T01:17:10;19.50;99.90
20740;DHT22;10530;49.968;19.844;2023-07-13T01:22:15;19.50;99.90
20740;DHT22;10530;49.968;19.844;2023-07-13T01:27:22;19.50;99.90
20740;DHT22;10530;49.968;19.844;2023-07-13T01:32:26;19.50;99.90
20740;DHT22;10530;49.968;19.844;2023-07-13T01:37:30;19.60;99.90
20740;DHT22;10530;49.968;19.844;2023-07-13T01:42:39;19.50;99.90
20740;DHT22;10530;49.968;19.844;2023-07-13T01:47:42;19.40;99.90
20740;DHT22;10530;49.968;19.844;2023-07-13T01:52:45;19.50;99.90
20740;DHT22;10530;49.968;19.844;2023-07-13T01:57:48;19.40;99.90
20740;DHT22;10530;49.968;19.844;2023-07-13T02:02:52;19.40;99.90
20740;DHT22;10530;49.968;19.844;2023-07-13T02:07:55;19.30;99.90
20740;DHT22;10530;49.968;19.844;2023-07-13T02:12:59;19.30;99.90
20740;DHT22;10530;49.968;19.844;2023-07-13T02:18:02;19.10;99.90
20740;DHT22;10530;49.968;19.844;2023-07-13T02:23:06;19.10;99.90
20740;DHT22;10530;49.968;19.844;2023-07-13T02:28:13;19.00;99.90
20740;DHT22;10530;49.968;19.844;2023-07-13T02:33:15;18.90;99.90
20740;DHT22;10530;49.968;19.844;2023-07-13T02:38:18;18.90;99.90
20740;DHT22;10530;49.968;19.844;2023-07-13T02:43:22;18.70;99.90
20740;DHT22;10530;49.968;19.844;2023-07-13T02:48:24;18.60;99.90
20740;DHT22;10530;49.968;19.844;2023-07-13T02:53:27;18.60;99.90
20740;DHT22;10530;49.968;19.844;2023-07-13T02:58:30;18.30;99.90
20740;DHT22;10530;49.968;19.844;2023-07-13T03:03:33;18.30;99.90
20740;DHT22;10530;49.968;19.844;2023-07-13T03:08:37;18.30;99.90
20740;DHT22;10530;49.968;19.844;2023-07-13T03:13:40;18.40;99.90
20740;DHT22;10530;49.968;19.844;2023-07-13T03:18:46;18.50;99.90
20740;DHT22;10530;49.968;19.844;2023-07-13T03:23:49;18.50;99.90
20740;DHT22;10530;49.968;19.844;2023-07-13T03:28:52;18.60;99.90
20740;DHT22;10530;49.968;19.844;2023-07-13T03:33:58;18.50;99.90
20740;DHT22;10530;49.968;19.844;2023-07-13T03:39:03;18.50;99.90
20740;DHT22;10530;49.968;19.844;2023-07-13T03:44:18;18.60;99.90
20740;DHT22;10530;49.968;19.844;2023-07-13T03:49:25;18.50;99.90
20740;DHT22;10530;49.968;19.844;2023-07-13T03:54:28;18.60;99.90
20740;DHT22;10530;49.968;19.844;2023-07-13T03:59:32;18.60;99.90
20740;DHT22;10530;49.968;19.844;2023-07-13T04:04:35;18.70;99.90
20740;DHT22;10530;49.968;19.844;2023-07-13T04:09:38;18.80;99.90
20740;DHT22;10530;49.968;19.844;2023-07-13T04:14:41;18.90;99.90
20740;DHT22;10530;49.968;19.844;2023-07-13T04:19:43;19.00;99.90
20740;DHT22;10530;49.968;19.844;2023-07-13T04:24:46;19.30;99.90
20740;DHT22;10530;49.968;19.844;2023-07-13T04:29:49;19.70;99.90
20740;DHT22;10530;49.968;19.844;2023-07-13T04:34:51;20.00;99.90
20740;DHT22;10530;49.968;19.844;2023-07-13T04:39:56;20.30;99.90
20740;DHT22;10530;49.968;19.844;2023-07-13T04:44:59;20.60;99.90
20740;DHT22;10530;49.968;19.844;2023-07-13T04:50:03;20.80;99.90
20740;DHT22;10530;49.968;19.844;2023-07-13T04:55:06;21.10;99.90
20740;DHT22;10530;49.968;19.844;2023-07-13T05:00:09;21.20;99.90
20740;DHT22;10530;49.968;19.844;2023-07-13T05:05:14;21.40;99.90
20740;DHT22;10530;49.968;19.844;2023-07-13T05:10:16;21.70;99.90
20740;DHT22;10530;49.968;19.844;2023-07-13T05:15:22;21.60;99.90
20740;DHT22;10530;49.968;19.844;2023-07-13T05:20:25;21.60;99.90
20740;DHT22;10530;49.968;19.844;2023-07-13T05:25:28;21.70;99.90
20740;DHT22;10530;49.968;19.844;2023-07-13T05:30:31;21.70;99.90
20740;DHT22;10530;49.968;19.844;2023-07-13T05:35:36;21.80;99.90
20740;DHT22;10530;49.968;19.844;2023-07-13T05:40:39;21.90;99.90
20740;DHT22;10530;49.968;19.844;2023-07-13T05:45:42;22.20;99.90
20740;DHT22;10530;49.968;19.844;2023-07-13T05:50:45;22.60;99.90
20740;DHT22;10530;49.968;19.844;2023-07-13T05:55:48;22.70;99.90
20740;DHT22;10530;49.968;19.844;2023-07-13T06:01:02;22.90;99.90
20740;DHT22;10530;49.968;19.844;2023-07-13T06:06:07;23.10;99.90
20740;DHT22;10530;49.968;19.844;2023-07-13T06:11:17;23.30;99.90
20740;DHT22;10530;49.968;19.844;2023-07-13T06:16:20;23.50;99.90
20740;DHT22;10530;49.968;19.844;2023-07-13T06:21:23;23.60;99.90
20740;DHT22;10530;49.968;19.844;2023-07-13T06:26:27;23.60;99.90
20740;DHT22;10530;49.968;19.844;2023-07-13T06:31:31;24.00;99.90
20740;DHT22;10530;49.968;19.844;2023-07-13T06:36:34;24.10;99.90
20740;DHT22;10530;49.968;19.844;2023-07-13T06:41:38;24.60;99.90
20740;DHT22;10530;49.968;19.844;2023-07-13T06:46:45;24.80;99.90
20740;DHT22;10530;49.968;19.844;2023-07-13T06:51:48;24.70;99.90
20740;DHT22;10530;49.968;19.844;2023-07-13T06:56:51;24.90;99.90
20740;DHT22;10530;49.968;19.844;2023-07-13T07:01:53;25.50;99.90
20740;DHT22;10530;49.968;19.844;2023-07-13T07:06:56;26.10;99.90
20740;DHT22;10530;49.968;19.844;2023-07-13T07:12:01;25.90;99.90
20740;DHT22;10530;49.968;19.844;2023-07-13T07:17:06;26.40;99.90
20740;DHT22;10530;49.968;19.844;2023-07-13T07:22:09;26.20;99.90
20740;DHT22;10530;49.968;19.844;2023-07-13T07:27:12;26.00;99.90
20740;DHT22;10530;49.968;19.844;2023-07-13T07:32:18;26.10;99.90
20740;DHT22;10530;49.968;19.844;2023-07-13T07:37:25;26.40;99.90
20740;DHT22;10530;49.968;19.844;2023-07-13T07:42:48;26.50;99.90
20740;DHT22;10530;49.968;19.844;2023-07-13T07:47:51;26.90;99.90
20740;DHT22;10530;49.968;19.844;2023-07-13T07:52:54;26.80;99.90
20740;DHT22;10530;49.968;19.844;2023-07-13T07:57:58;26.60;99.90
20740;DHT22;10530;49.968;19.844;2023-07-13T08:03:04;27.30;99.90
20740;DHT22;10530;49.968;19.844;2023-07-13T08:08:10;26.90;99.90
20740;DHT22;10530;49.968;19.844;2023-07-13T08:13:13;27.10;99.90
20740;DHT22;10530;49.968;19.844;2023-07-13T08:18:17;27.00;99.90
20740;DHT22;10530;49.968;19.844;2023-07-13T08:23:20;26.90;99.90
20740;DHT22;10530;49.968;19.844;2023-07-13T08:28:23;27.00;99.90
20740;DHT22;10530;49.968;19.844;2023-07-13T08:33:27;27.20;99.90
20740;DHT22;10530;49.968;19.844;2023-07-13T08:38:30;27.60;99.90
20740;DHT22;10530;49.968;19.844;2023-07-13T08:43:35;28.10;99.90
20740;DHT22;10530;49.968;19.844;2023-07-13T08:53:49;27.70;99.90
20740;DHT22;10530;49.968;19.844;2023-07-13T08:59:04;27.10;99.90
20740;DHT22;10530;49.968;19.844;2023-07-13T09:04:14;27.10;99.90
20740;DHT22;10530;49.968;19.844;2023-07-13T09:14:55;26.70;99.90
20740;DHT22;10530;49.968;19.844;2023-07-13T09:25:32;26.30;99.90
20740;DHT22;10530;49.968;19.844;2023-07-13T09:30:56;26.10;99.90
20740;DHT22;10530;49.968;19.844;2023-07-13T09:36:01;25.90;99.90
20740;DHT22;10530;49.968;19.844;2023-07-13T09:47:00;25.20;99.90
20740;DHT22;10530;49.968;19.844;2023-07-13T09:52:07;25.20;99.90
20740;DHT22;10530;49.968;19.844;2023-07-13T09:57:15;25.10;99.90
20740;DHT22;10530;49.968;19.844;2023-07-13T10:02:35;25.00;99.90
20740;DHT22;10530;49.968;19.844;2023-07-13T10:07:42;24.80;99.90
20740;DHT22;10530;49.968;19.844;2023-07-13T10:12:47;24.40;99.90
20740;DHT22;10530;49.968;19.844;2023-07-13T10:17:51;24.00;99.90
20740;DHT22;10530;49.968;19.844;2023-07-13T10:23:10;23.90;99.90
20740;DHT22;10530;49.968;19.844;2023-07-13T10:28:27;23.60;99.90
20740;DHT22;10530;49.968;19.844;2023-07-13T10:33:30;23.40;99.90
20740;DHT22;10530;49.968;19.844;2023-07-13T10:38:33;23.20;99.90
20740;DHT22;10530;49.968;19.844;2023-07-13T10:43:43;23.00;99.90
20740;DHT22;10530;49.968;19.844;2023-07-13T10:48:49;22.80;99.90
20740;DHT22;10530;49.968;19.844;2023-07-13T10:54:32;22.50;99.90
20740;DHT22;10530;49.968;19.844;2023-07-13T10:59:36;22.30;99.90
20740;DHT22;10530;49.968;19.844;2023-07-13T11:04:47;21.90;99.90
20740;DHT22;10530;49.968;19.844;2023-07-13T11:09:53;21.60;99.90
20740;DHT22;10530;49.968;19.844;2023-07-13T11:20:21;21.30;99.90
20740;DHT22;10530;49.968;19.844;2023-07-13T11:25:32;21.20;99.90
20740;DHT22;10530;49.968;19.844;2023-07-13T11:30:49;20.80;99.90
20740;DHT22;10530;49.968;19.844;2023-07-13T11:36:15;20.30;99.90
20740;DHT22;10530;49.968;19.844;2023-07-13T11:46:32;19.20;99.90
20740;DHT22;10530;49.968;19.844;2023-07-13T11:51:36;18.80;99.90
20740;DHT22;10530;49.968;19.844;2023-07-13T11:56:40;18.40;99.90
20740;DHT22;10530;49.968;19.844;2023-07-13T12:01:46;18.20;99.90
20740;DHT22;10530;49.968;19.844;2023-07-13T12:07:06;18.10;99.90
20740;DHT22;10530;49.968;19.844;2023-07-13T12:12:18;18.10;99.90
20740;DHT22;10530;49.968;19.844;2023-07-13T12:17:23;18.10;99.90
20740;DHT22;10530;49.968;19.844;2023-07-13T12:22:27;18.10;99.90
20740;DHT22;10530;49.968;19.844;2023-07-13T12:27:30;18.20;99.90
20740;DHT22;10530;49.968;19.844;2023-07-13T12:32:35;18.30;99.90
20740;DHT22;10530;49.968;19.844;2023-07-13T12:37:45;18.40;99.90
20740;DHT22;10530;49.968;19.844;2023-07-13T12:42:50;18.40;99.90
20740;DHT22;10530;49.968;19.844;2023-07-13T12:47:57;18.40;99.90
20740;DHT22;10530;49.968;19.844;2023-07-13T12:53:05;18.40;99.90
20740;DHT22;10530;49.968;19.844;2023-07-13T12:58:25;18.70;99.90
20740;DHT22;10530;49.968;19.844;2023-07-13T13:03:49;18.80;99.90
20740;DHT22;10530;49.968;19.844;2023-07-13T13:08:57;18.90;99.90
20740;DHT22;10530;49.968;19.844;2023-07-13T13:14:00;19.20;99.90
20740;DHT22;10530;49.968;19.844;2023-07-13T13:19:14;19.50;99.90
20740;DHT22;10530;49.968;19.844;2023-07-13T13:24:19;19.60;99.90
20740;DHT22;10530;49.968;19.844;2023-07-13T13:29:24;19.60;99.90
20740;DHT22;10530;49.968;19.844;2023-07-13T13:34:27;19.60;99.90
20740;DHT22;10530;49.968;19.844;2023-07-13T13:39:34;19.70;99.90
20740;DHT22;10530;49.968;19.844;2023-07-13T13:44:37;19.60;99.90
20740;DHT22;10530;49.968;19.844;2023-07-13T13:49:40;19.50;99.90
20740;DHT22;10530;49.968;19.844;2023-07-13T13:54:42;19.40;99.90
20740;DHT22;10530;49.968;19.844;2023-07-13T13:59:46;19.90;99.90
20740;DHT22;10530;49.968;19.844;2023-07-13T14:04:56;20.60;99.90
20740;DHT22;10530;49.968;19.844;2023-07-13T14:10:00;20.70;99.90
20740;DHT22;10530;49.968;19.844;2023-07-13T14:15:03;21.50;99.90
20740;DHT22;10530;49.968;19.844;2023-07-13T14:20:11;21.50;99.90
20740;DHT22;10530;49.968;19.844;2023-07-13T14:25:15;21.20;99.90
20740;DHT22;10530;49.968;19.844;2023-07-13T14:30:20;20.80;99.90
20740;DHT22;10530;49.968;19.844;2023-07-13T14:35:24;21.00;99.90
20740;DHT22;10530;49.968;19.844;2023-07-13T14:40:30;21.10;99.90
20740;DHT22;10530;49.968;19.844;2023-07-13T14:45:33;21.20;99.90
20740;DHT22;10530;49.968;19.844;2023-07-13T14:50:36;21.50;99.90
20740;DHT22;10530;49.968;19.844;2023-07-13T14:55:40;21.30;99.90
20740;DHT22;10530;49.968;19.844;2023-07-13T15:00:45;21.10;99.90
20740;DHT22;10530;49.968;19.844;2023-07-13T15:05:49;20.90;99.90
20740;DHT22;10530;49.968;19.844;2023-07-13T15:10:52;20.70;99.90
20740;DHT22;10530;49.968;19.844;2023-07-13T15:15:55;21.30;99.90
20740;DHT22;10530;49.968;19.844;2023-07-13T15:20:58;21.30;99.90
20740;DHT22;10530;49.968;19.844;2023-07-13T15:26:05;21.70;99.90
20740;DHT22;10530;49.968;19.844;2023-07-13T15:31:23;21.40;99.90
20740;DHT22;10530;49.968;19.844;2023-07-13T15:36:27;21.50;99.90
20740;DHT22;10530;49.968;19.844;2023-07-13T15:41:31;21.60;99.90
20740;DHT22;10530;49.968;19.844;2023-07-13T15:46:35;22.00;99.90
20740;DHT22;10530;49.968;19.844;2023-07-13T15:51:38;23.00;99.90
20740;DHT22;10530;49.968;19.844;2023-07-13T15:56:41;23.10;99.90
20740;DHT22;10530;49.968;19.844;2023-07-13T16:01:45;22.30;99.90
20740;DHT22;10530;49.968;19.844;2023-07-13T16:06:50;22.40;99.90
20740;DHT22;10530;49.968;19.844;2023-07-13T16:11:53;22.70;99.90
20740;DHT22;10530;49.968;19.844;2023-07-13T16:17:00;22.30;99.90
20740;DHT22;10530;49.968;19.844;2023-07-13T16:22:15;21.90;99.90
20740;DHT22;10530;49.968;19.844;2023-07-13T16:27:18;21.70;99.90
20740;DHT22;10530;49.968;19.844;2023-07-13T16:32:21;21.30;99.90
20740;DHT22;10530;49.968;19.844;2023-07-13T16:37:28;21.20;99.90
20740;DHT22;10530;49.968;19.844;2023-07-13T16:42:31;21.20;99.90
20740;DHT22;10530;49.968;19.844;2023-07-13T16:47:34;21.20;99.90
20740;DHT22;10530;49.968;19.844;2023-07-13T16:52:37;21.10;99.90
20740;DHT22;10530;49.968;19.844;2023-07-13T16:57:41;21.30;99.90
20740;DHT22;10530;49.968;19.844;2023-07-13T17:02:46;21.30;99.90
20740;DHT22;10530;49.968;19.844;2023-07-13T17:07:49;21.80;99.90
20740;DHT22;10530;49.968;19.844;2023-07-13T17:12:54;22.10;99.90
20740;DHT22;10530;49.968;19.844;2023-07-13T17:17:57;21.80;99.90
20740;DHT22;10530;49.968;19.844;2023-07-13T17:23:19;21.60;99.90
20740;DHT22;10530;49.968;19.844;2023-07-13T17:28:23;21.40;99.90
20740;DHT22;10530;49.968;19.844;2023-07-13T17:33:32;21.10;99.90
20740;DHT22;10530;49.968;19.844;2023-07-13T17:38:38;20.70;99.90
20740;DHT22;10530;49.968;19.844;2023-07-13T17:43:46;20.70;99.90
20740;DHT22;10530;49.968;19.844;2023-07-13T17:48:51;20.80;99.90
20740;DHT22;10530;49.968;19.844;2023-07-13T17:53:56;20.80;99.90
20740;DHT22;10530;49.968;19.844;2023-07-13T17:59:00;20.60;99.90
20740;DHT22;10530;49.968;19.844;2023-07-13T18:04:03;20.50;99.90
20740;DHT22;10530;49.968;19.844;2023-07-13T18:09:21;20.40;99.90
20740;DHT22;10530;49.968;19.844;2023-07-13T18:14:24;20.20;99.90
20740;DHT22;10530;49.968;19.844;2023-07-13T18:19:36;19.90;99.90
20740;DHT22;10530;49.968;19.844;2023-07-13T18:24:41;19.80;99.90
20740;DHT22;10530;49.968;19.844;2023-07-13T18:29:44;19.50;99.90
20740;DHT22;10530;49.968;19.844;2023-07-13T18:34:48;19.20;99.90
20740;DHT22;10530;49.968;19.844;2023-07-13T18:39:54;19.00;99.90
20740;DHT22;10530;49.968;19.844;2023-07-13T18:44:57;18.90;99.90
20740;DHT22;10530;49.968;19.844;2023-07-13T18:50:01;18.50;99.90
20740;DHT22;10530;49.968;19.844;2023-07-13T18:55:13;18.40;99.90
20740;DHT22;10530;49.968;19.844;2023-07-13T19:00:17;18.30;99.90
20740;DHT22;10530;49.968;19.844;2023-07-13T19:05:22;18.10;99.90
20740;DHT22;10530;49.968;19.844;2023-07-13T19:10:27;17.90;99.90
20740;DHT22;10530;49.968;19.844;2023-07-13T19:15:32;17.80;99.90
20740;DHT22;10530;49.968;19.844;2023-07-13T19:20:36;17.70;99.90
20740;DHT22;10530;49.968;19.844;2023-07-13T19:25:39;17.50;99.90
20740;DHT22;10530;49.968;19.844;2023-07-13T19:30:42;17.50;99.90
20740;DHT22;10530;49.968;19.844;2023-07-13T19:35:45;17.40;99.90
20740;DHT22;10530;49.968;19.844;2023-07-13T19:40:48;17.40;99.90
20740;DHT22;10530;49.968;19.844;2023-07-13T19:45:51;17.30;99.90
20740;DHT22;10530;49.968;19.844;2023-07-13T19:50:56;17.20;99.90
20740;DHT22;10530;49.968;19.844;2023-07-13T19:55:58;17.20;99.90
20740;DHT22;10530;49.968;19.844;2023-07-13T20:01:02;17.10;99.90
20740;DHT22;10530;49.968;19.844;2023-07-13T20:11:29;17.10;99.90
20740;DHT22;10530;49.968;19.844;2023-07-13T20:16:32;16.90;99.90
20740;DHT22;10530;49.968;19.844;2023-07-13T20:21:35;16.80;99.90
20740;DHT22;10530;49.968;19.844;2023-07-13T20:26:38;16.70;99.90
20740;DHT22;10530;49.968;19.844;2023-07-13T20:31:46;16.70;99.90
20740;DHT22;10530;49.968;19.844;2023-07-13T20:36:50;16.70;99.90
20740;DHT22;10530;49.968;19.844;2023-07-13T20:41:53;16.60;99.90
20740;DHT22;10530;49.968;19.844;2023-07-13T20:46:56;16.50;99.90
20740;DHT22;10530;49.968;19.844;2023-07-13T20:51:59;16.50;99.90
20740;DHT22;10530;49.968;19.844;2023-07-13T20:57:02;16.40;99.90
20740;DHT22;10530;49.968;19.844;2023-07-13T21:02:32;16.40;99.90
20740;DHT22;10530;49.968;19.844;2023-07-13T21:07:36;16.50;99.90
20740;DHT22;10530;49.968;19.844;2023-07-13T21:12:40;16.40;99.90
20740;DHT22;10530;49.968;19.844;2023-07-13T21:17:44;16.40;99.90
20740;DHT22;10530;49.968;19.844;2023-07-13T21:22:48;16.50;99.90
20740;DHT22;10530;49.968;19.844;2023-07-13T21:27:53;16.40;99.90
20740;DHT22;10530;49.968;19.844;2023-07-13T21:32:57;16.50;99.90
20740;DHT22;10530;49.968;19.844;2023-07-13T21:38:02;16.40;99.90
20740;DHT22;10530;49.968;19.844;2023-07-13T21:43:09;16.50;99.90
20740;DHT22;10530;49.968;19.844;2023-07-13T21:48:13;16.40;99.90
20740;DHT22;10530;49.968;19.844;2023-07-13T21:58:30;16.30;99.90
20740;DHT22;10530;49.968;19.844;2023-07-13T22:03:35;16.20;99.90
20740;DHT22;10530;49.968;19.844;2023-07-13T22:08:38;16.20;99.90
20740;DHT22;10530;49.968;19.844;2023-07-13T22:13:42;16.20;99.90
20740;DHT22;10530;49.968;19.844;2023-07-13T22:18:46;16.00;99.90
20740;DHT22;10530;49.968;19.844;2023-07-13T22:23:49;16.00;99.90
20740;DHT22;10530;49.968;19.844;2023-07-13T22:28:54;15.90;99.90
20740;DHT22;10530;49.968;19.844;2023-07-13T22:33:58;15.90;99.90
20740;DHT22;10530;49.968;19.844;2023-07-13T22:39:00;15.70;99.90
20740;DHT22;10530;49.968;19.844;2023-07-13T22:44:11;15.80;99.90
20740;DHT22;10530;49.968;19.844;2023-07-13T22:49:31;15.60;99.90
20740;DHT22;10530;49.968;19.844;2023-07-13T22:54:35;15.60;99.90
20740;DHT22;10530;49.968;19.844;2023-07-13T22:59:38;15.50;99.90
20740;DHT22;10530;49.968;19.844;2023-07-13T23:04:40;15.40;99.90
20740;DHT22;10530;49.968;19.844;2023-07-13T23:09:43;15.40;99.90
20740;DHT22;10530;49.968;19.844;2023-07-13T23:15:15;15.20;99.90
20740;DHT22;10530;49.968;19.844;2023-07-13T23:20:28;15.20;99.90
20740;DHT22;10530;49.968;19.844;2023-07-13T23:25:32;15.10;99.90
20740;DHT22;10530;49.968;19.844;2023-07-13T23:30:35;15.10;99.90
20740;DHT22;10530;49.968;19.844;2023-07-13T23:35:39;15.10;99.90
20740;DHT22;10530;49.968;19.844;2023-07-13T23:40:41;15.00;99.90
20740;DHT22;10530;49.968;19.844;2023-07-13T23:45:44;15.00;99.90
20740;DHT22;10530;49.968;19.844;2023-07-13T23:50:48;14.90;99.90
20740;DHT22;10530;49.968;19.844;2023-07-13T23:55:52;14.90;99.90
